sensor_id;sensor_type;location;lat;lon;timestamp;pressure;altitude;pressure_sealevel;temperature;humidity
75697;BME280;64312;44.738;20.612;2023-01-16T00:01:18;99929.44;;;5.18;73.28
75697;BME280;64312;44.738;20.612;2023-01-16T00:03:43;99918.75;;;5.26;73.42
75697;BME280;64312;44.738;20.612;2023-01-16T00:06:09;99923.41;;;5.32;72.92
75697;BME280;64312;44.738;20.612;2023-01-16T00:08:35;99929.94;;;5.38;72.39
75697;BME280;64312;44.738;20.612;2023-01-16T00:11:01;99920.25;;;5.45;72.72
75697;BME280;64312;44.738;20.612;2023-01-16T00:13:26;99916.41;;;5.48;72.58
75697;BME280;64312;44.738;20.612;2023-01-16T00:15:52;99906.56;;;5.48;72.92
75697;BME280;64312;44.738;20.612;2023-01-16T00:18:18;99901.38;;;5.55;72.91
75697;BME280;64312;44.738;20.612;2023-01-16T00:20:46;99903.38;;;5.53;72.73
75697;BME280;64312;44.738;20.612;2023-01-16T00:23:11;99903.22;;;5.54;72.80
75697;BME280;64312;44.738;20.612;2023-01-16T00:25:41;99902.06;;;5.49;72.39
75697;BME280;64312;44.738;20.612;2023-01-16T00:28:09;99907.25;;;5.42;72.59
75697;BME280;64312;44.738;20.612;2023-01-16T00:30:35;99907.22;;;5.34;73.36
75697;BME280;64312;44.738;20.612;2023-01-16T00:33:01;99901.59;;;5.29;73.10
75697;BME280;64312;44.738;20.612;2023-01-16T00:35:27;99898.41;;;5.25;73.44
75697;BME280;64312;44.738;20.612;2023-01-16T00:37:53;99895.41;;;5.28;73.07
75697;BME280;64312;44.738;20.612;2023-01-16T00:40:19;99897.56;;;5.33;73.17
75697;BME280;64312;44.738;20.612;2023-01-16T00:42:45;99896.22;;;5.37;73.06
75697;BME280;64312;44.738;20.612;2023-01-16T00:45:10;99894.03;;;5.40;72.64
75697;BME280;64312;44.738;20.612;2023-01-16T00:47:36;99881.03;;;5.46;72.88
75697;BME280;64312;44.738;20.612;2023-01-16T00:50:02;99889.19;;;5.52;72.54
75697;BME280;64312;44.738;20.612;2023-01-16T00:52:28;99883.84;;;5.52;72.19
75697;BME280;64312;44.738;20.612;2023-01-16T00:54:53;99874.69;;;5.47;72.72
75697;BME280;64312;44.738;20.612;2023-01-16T00:57:20;99875.50;;;5.47;72.53
75697;BME280;64312;44.738;20.612;2023-01-16T00:59:45;99877.53;;;5.45;72.93
75697;BME280;64312;44.738;20.612;2023-01-16T01:02:11;99872.53;;;5.42;73.31
75697;BME280;64312;44.738;20.612;2023-01-16T01:04:37;99866.38;;;5.41;73.12
75697;BME280;64312;44.738;20.612;2023-01-16T01:07:02;99856.66;;;5.40;73.12
75697;BME280;64312;44.738;20.612;2023-01-16T01:09:28;99850.50;;;5.40;73.40
75697;BME280;64312;44.738;20.612;2023-01-16T01:11:56;99844.34;;;5.39;74.01
75697;BME280;64312;44.738;20.612;2023-01-16T01:14:21;99832.00;;;5.38;73.07
75697;BME280;64312;44.738;20.612;2023-01-16T01:16:47;99826.84;;;5.37;73.47
75697;BME280;64312;44.738;20.612;2023-01-16T01:19:13;99829.50;;;5.37;73.54
75697;BME280;64312;44.738;20.612;2023-01-16T01:21:39;99835.31;;;5.40;73.32
75697;BME280;64312;44.738;20.612;2023-01-16T01:24:04;99836.00;;;5.42;73.06
75697;BME280;64312;44.738;20.612;2023-01-16T01:26:30;99817.50;;;5.41;72.75
75697;BME280;64312;44.738;20.612;2023-01-16T01:28:56;99826.16;;;5.43;72.86
75697;BME280;64312;44.738;20.612;2023-01-16T01:31:22;99820.31;;;5.48;73.29
75697;BME280;64312;44.738;20.612;2023-01-16T01:33:47;99814.09;;;5.47;73.64
75697;BME280;64312;44.738;20.612;2023-01-16T01:36:13;99817.28;;;5.51;72.99
75697;BME280;64312;44.738;20.612;2023-01-16T01:38:38;99810.94;;;5.52;72.86
75697;BME280;64312;44.738;20.612;2023-01-16T01:41:05;99814.94;;;5.56;73.09
75697;BME280;64312;44.738;20.612;2023-01-16T01:43:48;99805.91;;;5.57;72.94
75697;BME280;64312;44.738;20.612;2023-01-16T01:46:21;99811.75;;;5.60;72.73
75697;BME280;64312;44.738;20.612;2023-01-16T01:48:51;99807.06;;;5.62;72.95
75697;BME280;64312;44.738;20.612;2023-01-16T01:51:25;99798.06;;;5.63;72.54
75697;BME280;64312;44.738;20.612;2023-01-16T01:53:59;99796.38;;;5.62;73.59
75697;BME280;64312;44.738;20.612;2023-01-16T01:56:32;99795.38;;;5.63;73.20
75697;BME280;64312;44.738;20.612;2023-01-16T01:59:07;99803.91;;;5.59;73.41
75697;BME280;64312;44.738;20.612;2023-01-16T02:01:36;99811.91;;;5.59;73.16
75697;BME280;64312;44.738;20.612;2023-01-16T02:04:06;99812.59;;;5.53;73.13
75697;BME280;64312;44.738;20.612;2023-01-16T02:06:46;99803.44;;;5.47;73.76
75697;BME280;64312;44.738;20.612;2023-01-16T02:09:14;99785.94;;;5.44;73.50
75697;BME280;64312;44.738;20.612;2023-01-16T02:11:53;99782.44;;;5.44;74.24
75697;BME280;64312;44.738;20.612;2023-01-16T02:14:22;99781.44;;;5.45;74.12
75697;BME280;64312;44.738;20.612;2023-01-16T02:16:51;99771.41;;;5.47;74.15
75697;BME280;64312;44.738;20.612;2023-01-16T02:28:20;99760.72;;;5.47;74.22
75697;BME280;64312;44.738;20.612;2023-01-16T02:39:16;99755.25;;;5.40;73.86
75697;BME280;64312;44.738;20.612;2023-01-16T02:42:18;99754.59;;;5.38;74.08
75697;BME280;64312;44.738;20.612;2023-01-16T02:51:04;99733.19;;;5.47;75.03
75697;BME280;64312;44.738;20.612;2023-01-16T02:53:34;99736.19;;;5.52;74.39
75697;BME280;64312;44.738;20.612;2023-01-16T02:56:08;99731.34;;;5.55;74.51
75697;BME280;64312;44.738;20.612;2023-01-16T02:58:42;99720.28;;;5.58;74.89
75697;BME280;64312;44.738;20.612;2023-01-16T03:01:09;99720.78;;;5.62;74.81
75697;BME280;64312;44.738;20.612;2023-01-16T03:06:44;99720.81;;;5.54;73.44
75697;BME280;64312;44.738;20.612;2023-01-16T03:17:21;99702.53;;;5.34;75.22
75697;BME280;64312;44.738;20.612;2023-01-16T03:22:57;99693.06;;;5.32;75.07
75697;BME280;64312;44.738;20.612;2023-01-16T03:25:36;99679.72;;;5.32;75.51
75697;BME280;64312;44.738;20.612;2023-01-16T03:28:20;99675.03;;;5.34;75.44
75697;BME280;64312;44.738;20.612;2023-01-16T03:31:14;99684.88;;;5.33;74.84
75697;BME280;64312;44.738;20.612;2023-01-16T03:33:51;99679.72;;;5.32;74.96
75697;BME280;64312;44.738;20.612;2023-01-16T03:36:40;99674.75;;;5.29;75.28
75697;BME280;64312;44.738;20.612;2023-01-16T03:39:10;99659.88;;;5.26;75.69
75697;BME280;64312;44.738;20.612;2023-01-16T03:41:38;99652.25;;;5.23;75.45
75697;BME280;64312;44.738;20.612;2023-01-16T03:44:13;99647.75;;;5.24;75.84
75697;BME280;64312;44.738;20.612;2023-01-16T03:46:48;99631.09;;;5.22;75.60
75697;BME280;64312;44.738;20.612;2023-01-16T03:49:27;99631.22;;;5.20;75.76
75697;BME280;64312;44.738;20.612;2023-01-16T03:51:57;99633.06;;;5.20;75.11
75697;BME280;64312;44.738;20.612;2023-01-16T03:56:57;99631.47;;;5.10;75.12
75697;BME280;64312;44.738;20.612;2023-01-16T03:59:26;99615.31;;;5.04;75.79
75697;BME280;64312;44.738;20.612;2023-01-16T04:02:09;99610.00;;;4.96;75.34
75697;BME280;64312;44.738;20.612;2023-01-16T04:07:21;99610.84;;;4.88;76.10
75697;BME280;64312;44.738;20.612;2023-01-16T04:09:57;99608.38;;;4.86;76.06
75697;BME280;64312;44.738;20.612;2023-01-16T04:12:33;99617.19;;;4.87;75.28
75697;BME280;64312;44.738;20.612;2023-01-16T04:15:06;99593.06;;;4.80;75.57
75697;BME280;64312;44.738;20.612;2023-01-16T04:17:34;99583.22;;;4.81;75.11
75697;BME280;64312;44.738;20.612;2023-01-16T04:20:01;99588.75;;;4.79;75.27
75697;BME280;64312;44.738;20.612;2023-01-16T04:22:28;99588.09;;;4.77;75.67
75697;BME280;64312;44.738;20.612;2023-01-16T04:24:56;99593.25;;;4.79;75.26
75697;BME280;64312;44.738;20.612;2023-01-16T04:27:23;99580.75;;;4.79;74.87
75697;BME280;64312;44.738;20.612;2023-01-16T04:29:49;99591.41;;;4.79;74.42
75697;BME280;64312;44.738;20.612;2023-01-16T04:32:15;99586.72;;;4.81;74.58
75697;BME280;64312;44.738;20.612;2023-01-16T04:34:40;99583.88;;;4.83;74.16
75697;BME280;64312;44.738;20.612;2023-01-16T04:37:06;99583.72;;;4.84;74.08
75697;BME280;64312;44.738;20.612;2023-01-16T04:39:32;99586.22;;;4.86;73.53
75697;BME280;64312;44.738;20.612;2023-01-16T04:41:58;99579.88;;;4.87;73.24
75697;BME280;64312;44.738;20.612;2023-01-16T04:44:24;99578.03;;;4.87;73.56
75697;BME280;64312;44.738;20.612;2023-01-16T04:46:50;99582.53;;;4.87;72.91
75697;BME280;64312;44.738;20.612;2023-01-16T04:49:15;99578.84;;;4.88;72.21
75697;BME280;64312;44.738;20.612;2023-01-16T04:51:41;99578.22;;;4.86;72.73
75697;BME280;64312;44.738;20.612;2023-01-16T04:54:09;99572.88;;;4.86;71.88
75697;BME280;64312;44.738;20.612;2023-01-16T04:56:38;99579.34;;;4.92;71.92
75697;BME280;64312;44.738;20.612;2023-01-16T04:59:04;99559.69;;;4.93;72.22
75697;BME280;64312;44.738;20.612;2023-01-16T05:01:30;99559.50;;;4.94;71.69
75697;BME280;64312;44.738;20.612;2023-01-16T05:04:01;99554.84;;;4.96;71.66
75697;BME280;64312;44.738;20.612;2023-01-16T05:06:27;99540.81;;;4.94;71.32
75697;BME280;64312;44.738;20.612;2023-01-16T05:08:53;99547.00;;;4.95;71.37
75697;BME280;64312;44.738;20.612;2023-01-16T05:11:18;99536.03;;;4.89;71.06
75697;BME280;64312;44.738;20.612;2023-01-16T05:13:44;99540.19;;;4.92;71.01
75697;BME280;64312;44.738;20.612;2023-01-16T05:16:10;99540.00;;;4.94;71.34
75697;BME280;64312;44.738;20.612;2023-01-16T05:18:37;99528.88;;;4.90;70.62
75697;BME280;64312;44.738;20.612;2023-01-16T05:21:02;99522.03;;;4.87;70.70
75697;BME280;64312;44.738;20.612;2023-01-16T05:23:29;99533.19;;;4.91;71.09
75697;BME280;64312;44.738;20.612;2023-01-16T05:25:54;99536.69;;;4.92;70.94
75697;BME280;64312;44.738;20.612;2023-01-16T05:28:20;99516.88;;;4.86;70.70
75697;BME280;64312;44.738;20.612;2023-01-16T05:30:49;99496.72;;;4.83;70.53
75697;BME280;64312;44.738;20.612;2023-01-16T05:33:15;99493.06;;;4.84;70.68
75697;BME280;64312;44.738;20.612;2023-01-16T05:35:41;99502.53;;;4.87;70.44
75697;BME280;64312;44.738;20.612;2023-01-16T05:38:07;99510.34;;;4.88;70.93
75697;BME280;64312;44.738;20.612;2023-01-16T05:40:33;99506.84;;;4.88;70.42
75697;BME280;64312;44.738;20.612;2023-01-16T05:42:58;99513.19;;;4.87;70.79
75697;BME280;64312;44.738;20.612;2023-01-16T05:45:24;99519.34;;;4.87;69.80
75697;BME280;64312;44.738;20.612;2023-01-16T05:47:50;99508.03;;;4.85;70.50
75697;BME280;64312;44.738;20.612;2023-01-16T05:50:15;99510.91;;;4.84;69.97
75697;BME280;64312;44.738;20.612;2023-01-16T05:52:41;99498.72;;;4.81;69.46
75697;BME280;64312;44.738;20.612;2023-01-16T05:55:07;99487.09;;;4.74;69.80
75697;BME280;64312;44.738;20.612;2023-01-16T05:57:33;99504.06;;;4.81;70.37
75697;BME280;64312;44.738;20.612;2023-01-16T05:59:59;99495.03;;;4.82;70.25
75697;BME280;64312;44.738;20.612;2023-01-16T06:02:24;99492.38;;;4.82;70.42
75697;BME280;64312;44.738;20.612;2023-01-16T06:04:50;99481.72;;;4.82;69.94
75697;BME280;64312;44.738;20.612;2023-01-16T06:07:17;99479.41;;;4.79;70.14
75697;BME280;64312;44.738;20.612;2023-01-16T06:09:42;99479.59;;;4.78;70.04
75697;BME280;64312;44.738;20.612;2023-01-16T06:12:13;99471.41;;;4.79;70.00
75697;BME280;64312;44.738;20.612;2023-01-16T06:14:40;99471.22;;;4.81;69.91
75697;BME280;64312;44.738;20.612;2023-01-16T06:17:05;99464.25;;;4.80;70.24
75697;BME280;64312;44.738;20.612;2023-01-16T06:19:31;99451.91;;;4.79;69.88
75697;BME280;64312;44.738;20.612;2023-01-16T06:21:56;99452.09;;;4.77;70.04
75697;BME280;64312;44.738;20.612;2023-01-16T06:24:22;99459.09;;;4.78;69.67
75697;BME280;64312;44.738;20.612;2023-01-16T06:26:48;99459.59;;;4.74;69.09
75697;BME280;64312;44.738;20.612;2023-01-16T06:29:13;99456.94;;;4.74;69.65
75697;BME280;64312;44.738;20.612;2023-01-16T06:31:39;99455.28;;;4.73;69.37
75697;BME280;64312;44.738;20.612;2023-01-16T06:34:05;99455.47;;;4.71;69.21
75697;BME280;64312;44.738;20.612;2023-01-16T06:36:30;99458.78;;;4.73;69.16
75697;BME280;64312;44.738;20.612;2023-01-16T06:38:56;99450.41;;;4.76;69.15
75697;BME280;64312;44.738;20.612;2023-01-16T06:41:22;99442.09;;;4.79;68.72
75697;BME280;64312;44.738;20.612;2023-01-16T06:43:47;99439.03;;;4.82;68.67
75697;BME280;64312;44.738;20.612;2023-01-16T06:46:13;99435.03;;;4.86;68.91
75697;BME280;64312;44.738;20.612;2023-01-16T06:48:38;99428.50;;;4.89;68.35
75697;BME280;64312;44.738;20.612;2023-01-16T06:51:06;99431.28;;;4.96;68.50
75697;BME280;64312;44.738;20.612;2023-01-16T06:53:32;99425.63;;;4.99;68.16
75697;BME280;64312;44.738;20.612;2023-01-16T06:55:58;99419.75;;;5.03;68.33
75697;BME280;64312;44.738;20.612;2023-01-16T06:58:24;99415.72;;;5.07;68.04
75697;BME280;64312;44.738;20.612;2023-01-16T07:00:49;99401.72;;;5.05;68.26
75697;BME280;64312;44.738;20.612;2023-01-16T07:03:17;99410.84;;;5.11;68.43
75697;BME280;64312;44.738;20.612;2023-01-16T07:05:44;99403.16;;;5.16;68.19
75697;BME280;64312;44.738;20.612;2023-01-16T07:08:11;99393.75;;;5.20;67.84
75697;BME280;64312;44.738;20.612;2023-01-16T07:10:36;99388.09;;;5.23;67.96
75697;BME280;64312;44.738;20.612;2023-01-16T07:13:02;99379.06;;;5.24;68.02
75697;BME280;64312;44.738;20.612;2023-01-16T07:15:28;99379.69;;;5.26;67.41
75697;BME280;64312;44.738;20.612;2023-01-16T07:18:13;99370.53;;;5.29;67.46
75697;BME280;64312;44.738;20.612;2023-01-16T07:21:01;99360.38;;;5.24;67.39
75697;BME280;64312;44.738;20.612;2023-01-16T07:23:50;99376.94;;;5.34;67.76
75697;BME280;64312;44.738;20.612;2023-01-16T07:26:18;99381.75;;;5.39;67.43
75697;BME280;64312;44.738;20.612;2023-01-16T07:28:46;99390.03;;;5.44;67.88
75697;BME280;64312;44.738;20.612;2023-01-16T07:31:13;99368.16;;;5.49;67.54
75697;BME280;64312;44.738;20.612;2023-01-16T07:33:39;99359.78;;;5.52;67.85
75697;BME280;64312;44.738;20.612;2023-01-16T07:36:05;99364.56;;;5.56;67.46
75697;BME280;64312;44.738;20.612;2023-01-16T07:38:31;99358.50;;;5.62;67.57
75697;BME280;64312;44.738;20.612;2023-01-16T07:40:57;99353.44;;;5.67;67.23
75697;BME280;64312;44.738;20.612;2023-01-16T07:43:23;99350.88;;;5.74;67.04
75697;BME280;64312;44.738;20.612;2023-01-16T07:45:49;99349.31;;;5.80;66.76
75697;BME280;64312;44.738;20.612;2023-01-16T07:48:21;99347.34;;;5.88;66.40
75697;BME280;64312;44.738;20.612;2023-01-16T07:50:55;99351.78;;;5.96;66.73
75697;BME280;64312;44.738;20.612;2023-01-16T07:53:24;99335.84;;;6.03;66.23
75697;BME280;64312;44.738;20.612;2023-01-16T07:55:55;99333.06;;;6.11;65.95
75697;BME280;64312;44.738;20.612;2023-01-16T07:58:21;99328.63;;;6.18;65.72
75697;BME280;64312;44.738;20.612;2023-01-16T08:00:48;99319.84;;;6.24;65.71
75697;BME280;64312;44.738;20.612;2023-01-16T08:03:14;99309.81;;;6.26;65.39
75697;BME280;64312;44.738;20.612;2023-01-16T08:05:41;99329.69;;;6.38;64.63
75697;BME280;64312;44.738;20.612;2023-01-16T08:08:09;99329.09;;;6.43;65.31
75697;BME280;64312;44.738;20.612;2023-01-16T08:10:35;99317.66;;;6.49;65.21
75697;BME280;64312;44.738;20.612;2023-01-16T08:13:01;99315.72;;;6.58;64.58
75697;BME280;64312;44.738;20.612;2023-01-16T08:15:27;99320.53;;;6.69;64.96
75697;BME280;64312;44.738;20.612;2023-01-16T08:17:53;99313.38;;;6.76;64.49
75697;BME280;64312;44.738;20.612;2023-01-16T08:20:19;99295.56;;;6.83;64.10
75697;BME280;64312;44.738;20.612;2023-01-16T08:22:46;99288.44;;;6.90;64.02
75697;BME280;64312;44.738;20.612;2023-01-16T08:25:12;99278.16;;;6.94;63.52
75697;BME280;64312;44.738;20.612;2023-01-16T08:27:39;99279.22;;;6.99;63.48
75697;BME280;64312;44.738;20.612;2023-01-16T08:30:06;99286.09;;;7.09;63.84
75697;BME280;64312;44.738;20.612;2023-01-16T08:32:32;99281.84;;;7.21;63.81
75697;BME280;64312;44.738;20.612;2023-01-16T08:34:57;99293.66;;;7.33;63.82
75697;BME280;64312;44.738;20.612;2023-01-16T08:37:23;99289.81;;;7.42;64.82
75697;BME280;64312;44.738;20.612;2023-01-16T08:39:49;99298.34;;;7.59;63.92
75697;BME280;64312;44.738;20.612;2023-01-16T08:42:14;99296.53;;;7.66;63.74
75697;BME280;64312;44.738;20.612;2023-01-16T08:44:59;99295.97;;;7.77;63.86
75697;BME280;64312;44.738;20.612;2023-01-16T08:47:43;99292.94;;;7.87;62.51
75697;BME280;64312;44.738;20.612;2023-01-16T08:50:27;99304.06;;;7.91;63.35
75697;BME280;64312;44.738;20.612;2023-01-16T08:53:11;99309.09;;;8.00;62.87
75697;BME280;64312;44.738;20.612;2023-01-16T08:55:37;99294.84;;;8.00;62.27
75697;BME280;64312;44.738;20.612;2023-01-16T08:58:05;99287.22;;;8.03;62.10
75697;BME280;64312;44.738;20.612;2023-01-16T09:00:31;99282.06;;;8.02;61.47
75697;BME280;64312;44.738;20.612;2023-01-16T09:02:57;99276.13;;;8.06;62.10
75697;BME280;64312;44.738;20.612;2023-01-16T09:05:25;99272.41;;;8.07;62.05
75697;BME280;64312;44.738;20.612;2023-01-16T09:07:51;99276.53;;;8.10;61.80
75697;BME280;64312;44.738;20.612;2023-01-16T09:10:17;99271.81;;;8.12;61.87
75697;BME280;64312;44.738;20.612;2023-01-16T09:12:43;99264.19;;;8.15;61.50
75697;BME280;64312;44.738;20.612;2023-01-16T09:15:27;99244.59;;;8.15;61.47
75697;BME280;64312;44.738;20.612;2023-01-16T09:17:53;99248.31;;;8.21;61.15
75697;BME280;64312;44.738;20.612;2023-01-16T09:20:19;99253.25;;;8.24;61.55
75697;BME280;64312;44.738;20.612;2023-01-16T09:22:44;99241.53;;;8.25;60.87
75697;BME280;64312;44.738;20.612;2023-01-16T09:25:10;99237.59;;;8.27;60.73
75697;BME280;64312;44.738;20.612;2023-01-16T09:27:36;99229.34;;;8.29;60.52
75697;BME280;64312;44.738;20.612;2023-01-16T09:30:02;99224.63;;;8.31;61.39
75697;BME280;64312;44.738;20.612;2023-01-16T09:32:28;99222.13;;;8.29;60.74
75697;BME280;64312;44.738;20.612;2023-01-16T09:34:53;99209.75;;;8.35;61.34
75697;BME280;64312;44.738;20.612;2023-01-16T09:37:19;99199.88;;;8.35;61.44
75697;BME280;64312;44.738;20.612;2023-01-16T09:39:45;99203.22;;;8.37;61.26
75697;BME280;64312;44.738;20.612;2023-01-16T09:44:59;99193.72;;;8.41;60.98
75697;BME280;64312;44.738;20.612;2023-01-16T09:47:26;99172.47;;;8.40;60.55
75697;BME280;64312;44.738;20.612;2023-01-16T09:49:59;99176.78;;;8.41;60.25
75697;BME280;64312;44.738;20.612;2023-01-16T09:52:28;99165.03;;;8.42;60.42
75697;BME280;64312;44.738;20.612;2023-01-16T09:55:42;99155.94;;;8.43;59.92
75697;BME280;64312;44.738;20.612;2023-01-16T09:58:30;99151.22;;;8.45;60.09
75697;BME280;64312;44.738;20.612;2023-01-16T10:01:25;99148.13;;;8.48;59.94
75697;BME280;64312;44.738;20.612;2023-01-16T10:04:10;99150.59;;;8.50;59.71
75697;BME280;64312;44.738;20.612;2023-01-16T10:06:47;99149.75;;;8.49;59.52
75697;BME280;64312;44.738;20.612;2023-01-16T10:09:31;99142.53;;;8.50;60.16
75697;BME280;64312;44.738;20.612;2023-01-16T10:12:04;99144.00;;;8.52;60.66
75697;BME280;64312;44.738;20.612;2023-01-16T10:15:04;99146.25;;;8.55;60.10
75697;BME280;64312;44.738;20.612;2023-01-16T10:17:37;99145.03;;;8.58;60.27
75697;BME280;64312;44.738;20.612;2023-01-16T10:20:33;99125.22;;;8.59;59.71
75697;BME280;64312;44.738;20.612;2023-01-16T10:23:36;99123.75;;;8.63;60.10
75697;BME280;64312;44.738;20.612;2023-01-16T10:29:02;99107.25;;;8.66;60.37
75697;BME280;64312;44.738;20.612;2023-01-16T10:31:53;99099.19;;;8.66;60.44
75697;BME280;64312;44.738;20.612;2023-01-16T10:34:26;99103.75;;;8.65;60.16
75697;BME280;64312;44.738;20.612;2023-01-16T10:36:56;99088.88;;;8.63;60.57
75697;BME280;64312;44.738;20.612;2023-01-16T10:39:26;99085.38;;;8.62;59.75
75697;BME280;64312;44.738;20.612;2023-01-16T10:42:21;99082.28;;;8.65;60.51
75697;BME280;64312;44.738;20.612;2023-01-16T10:45:10;99083.31;;;8.64;60.47
75697;BME280;64312;44.738;20.612;2023-01-16T10:47:55;99079.63;;;8.59;60.92
75697;BME280;64312;44.738;20.612;2023-01-16T10:50:40;99071.34;;;8.60;60.75
75697;BME280;64312;44.738;20.612;2023-01-16T10:53:08;99062.69;;;8.58;61.55
75697;BME280;64312;44.738;20.612;2023-01-16T10:55:37;99056.69;;;8.56;61.32
75697;BME280;64312;44.738;20.612;2023-01-16T11:00:50;99054.44;;;8.53;61.53
75697;BME280;64312;44.738;20.612;2023-01-16T11:03:23;99047.44;;;8.52;61.35
75697;BME280;64312;44.738;20.612;2023-01-16T11:06:14;99033.22;;;8.52;61.73
75697;BME280;64312;44.738;20.612;2023-01-16T11:08:43;99033.81;;;8.54;62.43
75697;BME280;64312;44.738;20.612;2023-01-16T11:11:14;99020.19;;;8.55;61.81
75697;BME280;64312;44.738;20.612;2023-01-16T11:14:00;99022.88;;;8.55;61.76
75697;BME280;64312;44.738;20.612;2023-01-16T11:16:47;99014.81;;;8.55;61.90
75697;BME280;64312;44.738;20.612;2023-01-16T11:19:41;98996.47;;;8.52;62.00
75697;BME280;64312;44.738;20.612;2023-01-16T11:22:21;99008.84;;;8.53;61.55
75697;BME280;64312;44.738;20.612;2023-01-16T11:24:48;99001.25;;;8.50;61.35
75697;BME280;64312;44.738;20.612;2023-01-16T11:27:21;99000.00;;;8.46;61.82
75697;BME280;64312;44.738;20.612;2023-01-16T11:29:52;98980.00;;;8.42;60.98
75697;BME280;64312;44.738;20.612;2023-01-16T11:32:19;98987.66;;;8.38;61.81
75697;BME280;64312;44.738;20.612;2023-01-16T11:34:54;98982.28;;;8.32;62.18
75697;BME280;64312;44.738;20.612;2023-01-16T11:37:21;98975.44;;;8.29;62.24
75697;BME280;64312;44.738;20.612;2023-01-16T11:39:52;98969.06;;;8.30;62.23
75697;BME280;64312;44.738;20.612;2023-01-16T11:42:19;98973.22;;;8.26;62.53
75697;BME280;64312;44.738;20.612;2023-01-16T11:45:17;98974.44;;;8.24;62.71
75697;BME280;64312;44.738;20.612;2023-01-16T11:48:05;98962.50;;;8.20;62.25
75697;BME280;64312;44.738;20.612;2023-01-16T11:50:50;98965.19;;;8.20;62.48
75697;BME280;64312;44.738;20.612;2023-01-16T11:53:16;98951.34;;;8.16;62.66
75697;BME280;64312;44.738;20.612;2023-01-16T11:55:55;98945.19;;;8.15;62.74
75697;BME280;64312;44.738;20.612;2023-01-16T12:03:54;98931.38;;;8.19;63.50
75697;BME280;64312;44.738;20.612;2023-01-16T12:06:43;98918.34;;;8.22;64.40
75697;BME280;64312;44.738;20.612;2023-01-16T12:09:56;98908.03;;;8.26;64.70
75697;BME280;64312;44.738;20.612;2023-01-16T12:12:18;98908.41;;;8.29;64.78
75697;BME280;64312;44.738;20.612;2023-01-16T12:15:13;98895.66;;;8.31;64.67
75697;BME280;64312;44.738;20.612;2023-01-16T12:43:05;98862.47;;;8.26;63.04
75697;BME280;64312;44.738;20.612;2023-01-16T12:45:59;98862.47;;;8.26;63.08
75697;BME280;64312;44.738;20.612;2023-01-16T12:59:02;98845.81;;;8.10;65.53
75697;BME280;64312;44.738;20.612;2023-01-16T13:01:36;98829.56;;;8.05;66.51
75697;BME280;64312;44.738;20.612;2023-01-16T13:04:15;98845.41;;;8.07;67.32
75697;BME280;64312;44.738;20.612;2023-01-16T13:06:48;98841.09;;;8.06;68.27
75697;BME280;64312;44.738;20.612;2023-01-16T13:09:22;98820.66;;;8.05;67.74
75697;BME280;64312;44.738;20.612;2023-01-16T13:12:32;98825.66;;;8.01;67.87
75697;BME280;64312;44.738;20.612;2023-01-16T13:15:22;98813.28;;;8.00;67.25
75697;BME280;64312;44.738;20.612;2023-01-16T13:17:59;98809.56;;;8.01;67.82
75697;BME280;64312;44.738;20.612;2023-01-16T13:20:29;98825.84;;;8.06;68.15
75697;BME280;64312;44.738;20.612;2023-01-16T13:23:06;98833.44;;;8.09;68.47
75697;BME280;64312;44.738;20.612;2023-01-16T13:25:39;98836.53;;;8.13;68.63
75697;BME280;64312;44.738;20.612;2023-01-16T13:30:44;98821.03;;;8.22;68.71
75697;BME280;64312;44.738;20.612;2023-01-16T13:33:13;98830.06;;;8.27;69.21
75697;BME280;64312;44.738;20.612;2023-01-16T13:39:16;98806.34;;;8.31;67.03
75697;BME280;64312;44.738;20.612;2023-01-16T13:41:50;98792.75;;;8.26;66.69
75697;BME280;64312;44.738;20.612;2023-01-16T13:44:22;98820.63;;;8.25;66.18
75697;BME280;64312;44.738;20.612;2023-01-16T13:47:10;98818.34;;;8.22;66.06
75697;BME280;64312;44.738;20.612;2023-01-16T13:49:38;98817.09;;;8.18;66.30
75697;BME280;64312;44.738;20.612;2023-01-16T13:52:16;98814.84;;;8.21;66.80
75697;BME280;64312;44.738;20.612;2023-01-16T13:54:44;98807.41;;;8.23;66.17
75697;BME280;64312;44.738;20.612;2023-01-16T13:57:19;98797.91;;;8.27;66.37
75697;BME280;64312;44.738;20.612;2023-01-16T13:59:49;98790.25;;;8.31;65.23
75697;BME280;64312;44.738;20.612;2023-01-16T14:10:40;98761.34;;;8.39;64.39
75697;BME280;64312;44.738;20.612;2023-01-16T14:13:24;98760.88;;;8.49;64.54
75697;BME280;64312;44.738;20.612;2023-01-16T14:18:41;98756.47;;;8.61;64.17
75697;BME280;64312;44.738;20.612;2023-01-16T14:21:18;98750.66;;;8.64;63.95
75697;BME280;64312;44.738;20.612;2023-01-16T14:23:48;98751.09;;;8.61;63.54
75697;BME280;64312;44.738;20.612;2023-01-16T14:26:41;98740.00;;;8.58;63.50
75697;BME280;64312;44.738;20.612;2023-01-16T14:29:27;98721.63;;;8.55;63.19
75697;BME280;64312;44.738;20.612;2023-01-16T14:32:05;98714.09;;;8.45;63.92
75697;BME280;64312;44.738;20.612;2023-01-16T14:34:57;98709.78;;;8.44;64.32
75697;BME280;64312;44.738;20.612;2023-01-16T14:37:30;98710.41;;;8.39;63.90
75697;BME280;64312;44.738;20.612;2023-01-16T14:39:58;98701.34;;;8.34;64.42
75697;BME280;64312;44.738;20.612;2023-01-16T14:42:36;98702.38;;;8.33;64.45
75697;BME280;64312;44.738;20.612;2023-01-16T14:45:30;98688.97;;;8.33;64.17
75697;BME280;64312;44.738;20.612;2023-01-16T14:53:53;98674.34;;;8.29;64.29
75697;BME280;64312;44.738;20.612;2023-01-16T14:56:40;98690.66;;;8.27;64.39
75697;BME280;64312;44.738;20.612;2023-01-16T14:59:15;98679.94;;;8.27;65.04
75697;BME280;64312;44.738;20.612;2023-01-16T15:01:50;98689.03;;;8.26;64.32
75697;BME280;64312;44.738;20.612;2023-01-16T15:05:04;98684.47;;;8.27;64.44
75697;BME280;64312;44.738;20.612;2023-01-16T15:07:47;98687.16;;;8.27;65.40
75697;BME280;64312;44.738;20.612;2023-01-16T15:10:29;98689.84;;;8.27;64.75
75697;BME280;64312;44.738;20.612;2023-01-16T15:15:47;98690.66;;;8.27;64.18
75697;BME280;64312;44.738;20.612;2023-01-16T15:18:17;98685.72;;;8.24;64.48
75697;BME280;64312;44.738;20.612;2023-01-16T15:21:02;98675.63;;;8.26;64.78
75697;BME280;64312;44.738;20.612;2023-01-16T15:23:46;98680.97;;;8.26;64.55